Time;durP1;ratioP1;P1;durP2;ratioP2;P2;SDS_P1;SDS_P2;PMS_P1;PMS_P2;Temp;Humidity;BMP_temperature;BMP_pressure;BME280_temperature;BME280_humidity;BME280_pressure;Samples;Min_cycle;Max_cycle;Signal;HPM_P1;HPM_P2
2022/02/10 00:14:44;;;;;;;32.03;11.75;;;;;;;1.67;92.48;99639.12;1684641;85;21564;-73
2022/02/10 00:17:10;;;;;;;22.05;11.48;;;;;;;1.67;92.82;99634.24;1680307;85;21465;-73
2022/02/10 00:19:45;;;;;;;25.57;10.40;;;;;;;1.68;93.20;99630.44;1683016;85;20964;-71
2022/02/10 00:22:07;;;;;;;22.62;10.78;;;;;;;1.70;93.55;99620.97;1681520;85;20947;-73
2022/02/10 00:35:39;;;;;;;21.15;10.40;;;;;;;1.73;95.36;99614.71;1684317;85;20976;-70
2022/02/10 00:38:00;;;;;;;30.77;10.65;;;;;;;1.74;95.72;99615.81;1683208;85;21417;-73
2022/02/10 00:40:35;;;;;;;22.05;10.23;;;;;;;1.75;96.04;99605.77;1684219;85;21148;-72
2022/02/10 00:43:04;;;;;;;21.12;10.75;;;;;;;1.77;96.39;99605.81;1684104;85;20860;-72
2022/02/10 00:45:32;;;;;;;28.60;10.82;;;;;;;1.79;96.82;99598.20;1684099;85;20962;-73
2022/02/10 00:48:03;;;;;;;20.55;10.95;;;;;;;1.79;96.99;99596.03;1684143;85;21012;-74
2022/02/10 00:50:31;;;;;;;30.88;11.20;;;;;;;1.80;97.36;99599.02;1684137;85;21063;-71
2022/02/10 00:53:07;;;;;;;27.67;11.95;;;;;;;1.82;97.70;99595.52;1684133;84;21796;-73
2022/02/10 00:55:34;;;;;;;30.02;12.53;;;;;;;1.83;97.84;99588.98;1683809;85;20853;-74
2022/02/10 00:58:06;;;;;;;30.27;11.93;;;;;;;1.83;98.14;99588.98;1684405;85;20937;-73
2022/02/10 01:30:15;;;;;;;21.10;11.15;;;;;;;1.99;100.00;99573.63;1684192;85;20948;-73
2022/02/10 01:32:44;;;;;;;26.97;11.53;;;;;;;2.01;100.00;99570.11;1684211;84;21139;-74
2022/02/10 01:35:16;;;;;;;23.02;10.72;;;;;;;2.03;100.00;99573.92;1684034;85;20856;-73
2022/02/10 01:37:40;;;;;;;20.50;12.40;;;;;;;2.05;100.00;99569.02;1684030;85;21437;-73
2022/02/10 01:40:42;;;;;;;23.07;11.57;;;;;;;2.07;100.00;99561.43;1684121;85;21035;-73
2022/02/10 02:04:46;;;;;;;19.73;10.43;;;;;;;2.26;100.00;99550.13;1684373;85;21484;-72
2022/02/10 02:07:15;;;;;;;18.52;11.10;;;;;;;2.27;100.00;99559.37;1684373;85;21059;-73
2022/02/10 02:09:43;;;;;;;20.25;10.78;;;;;;;2.30;100.00;99552.04;1660308;85;20956;-72
2022/02/10 02:12:10;;;;;;;15.50;9.78;;;;;;;2.34;100.00;99555.05;1684788;85;21497;-74
2022/02/10 02:14:38;;;;;;;15.68;9.88;;;;;;;2.37;100.00;99559.16;1684470;85;20992;-73
2022/02/10 02:17:06;;;;;;;18.77;10.30;;;;;;;2.38;100.00;99552.09;1684176;85;21047;-74
2022/02/10 02:19:33;;;;;;;16.90;10.13;;;;;;;2.39;100.00;99541.48;1684229;85;21008;-73
2022/02/10 02:22:06;;;;;;;16.57;9.60;;;;;;;2.41;100.00;99541.22;1684425;84;21031;-72
2022/02/10 02:24:34;;;;;;;16.02;9.53;;;;;;;2.43;100.00;99546.69;1683729;84;21153;-73
2022/02/10 02:27:05;;;;;;;13.58;8.90;;;;;;;2.47;100.00;99553.78;1692527;84;20897;-71
2022/02/10 02:29:42;;;;;;;16.70;9.13;;;;;;;2.47;100.00;99551.06;1667441;84;21441;-73
2022/02/10 02:32:17;;;;;;;18.75;10.00;;;;;;;2.51;100.00;99553.51;1692909;84;20996;-69
2022/02/10 02:37:56;;;;;;;16.05;8.93;;;;;;;2.55;100.00;99563.32;1692436;84;21509;-72
2022/02/10 03:03:58;;;;;;;14.10;8.75;;;;;;;2.58;100.00;99561.42;1688620;84;21414;-72
2022/02/10 03:12:24;;;;;;;15.28;9.60;;;;;;;2.90;100.00;99555.56;1658611;84;21011;-73
2022/02/10 03:14:57;;;;;;;14.35;8.85;;;;;;;2.94;100.00;99559.91;1692780;84;21520;-73
2022/02/10 03:17:41;;;;;;;14.50;9.35;;;;;;;2.98;100.00;99558.30;1692191;84;21175;-73
2022/02/10 03:59:34;;;;;;;19.80;10.15;;;;;;;3.04;100.00;99563.48;1634317;86;21070;-73
2022/02/10 04:14:12;;;;;;;21.30;14.28;;;;;;;3.30;100.00;99557.27;1703903;84;20963;-73
2022/02/10 04:16:43;;;;;;;23.67;14.53;;;;;;;3.32;100.00;99551.55;1702428;84;20900;-74
2022/02/10 04:22:07;;;;;;;17.48;13.93;;;;;;;3.35;100.00;99555.09;1703647;84;21567;-73
2022/02/10 04:25:23;;;;;;;21.00;14.28;;;;;;;3.36;100.00;99550.73;1702486;84;21707;-74
2022/02/10 04:27:09;;;;;;;19.80;14.10;;;;;;;3.37;100.00;99561.92;1689476;84;20976;-72
2022/02/10 04:32:26;;;;;;;26.02;14.95;;;;;;;3.37;100.00;99557.83;1703690;84;21051;-73
2022/02/10 04:37:53;;;;;;;27.73;13.62;;;;;;;3.40;100.00;99559.19;1681726;84;21212;-73
2022/02/10 05:22:16;;;;;;;30.85;18.17;;;;;;;3.36;100.00;99587.51;1676020;84;20956;-72
2022/02/10 05:24:44;;;;;;;25.20;16.55;;;;;;;3.36;100.00;99578.54;1700882;84;21059;-73
2022/02/10 05:35:48;;;;;;;24.77;15.88;;;;;;;3.33;100.00;99598.95;1692614;84;21012;-73
2022/02/10 05:37:50;;;;;;;23.07;16.40;;;;;;;3.33;100.00;99608.48;1682441;84;21528;-70
2022/02/10 05:40:24;;;;;;;28.52;16.93;;;;;;;3.33;100.00;99609.84;1692453;84;21532;-72
2022/02/10 05:45:27;;;;;;;23.95;16.02;;;;;;;3.34;100.00;99608.78;1692536;83;20965;-74
2022/02/10 06:56:28;;;;;;;25.35;15.00;;;;;;;3.52;100.00;99636.58;1684083;85;21011;-73
2022/02/10 07:09:58;;;;;;;22.65;15.18;;;;;;;3.70;100.00;99622.17;1679466;85;21514;-73
2022/02/10 07:15:11;;;;;;;25.92;14.50;;;;;;;3.77;100.00;99626.81;1684123;85;21223;-72
2022/02/10 07:48:00;;;;;;;26.40;16.70;;;;;;;3.99;100.00;99657.08;1684214;85;20983;-72
2022/02/10 07:50:42;;;;;;;29.27;17.62;;;;;;;4.03;100.00;99657.36;1678366;85;21068;-73
2022/02/10 08:50:48;;;;;;;24.40;16.23;;;;;;;4.68;100.00;99694.10;1684247;85;21043;-73
2022/02/10 08:55:41;;;;;;;25.75;14.55;;;;;;;4.63;100.00;99702.59;1684168;85;20856;-73
2022/02/10 09:06:37;;;;;;;23.42;15.28;;;;;;;4.63;100.00;99702.59;1684189;85;21134;-75
2022/02/10 09:09:30;;;;;;;26.62;15.32;;;;;;;4.66;100.00;99694.95;1681512;85;20924;-73
2022/02/10 10:02:51;;;;;;;24.95;15.18;;;;;;;5.39;96.68;99691.96;1684482;85;20941;-69
2022/02/10 10:05:35;;;;;;;33.02;18.52;;;;;;;5.40;96.40;99690.85;1683961;85;20940;-71
2022/02/10 10:11:25;;;;;;;24.85;15.03;;;;;;;5.39;95.84;99685.12;1684197;85;21007;-71
2022/02/10 10:14:09;;;;;;;21.05;13.35;;;;;;;5.42;95.85;99677.73;1680681;85;21560;-74
2022/02/10 10:16:40;;;;;;;22.10;15.98;;;;;;;5.42;95.62;99674.45;1665957;85;21464;-74
2022/02/10 10:19:06;;;;;;;21.27;14.47;;;;;;;5.44;95.41;99674.97;1681029;85;21536;-74
2022/02/10 10:21:41;;;;;;;20.77;13.50;;;;;;;5.44;95.11;99674.17;1680941;85;21515;-71
2022/02/10 10:49:49;;;;;;;16.25;11.70;;;;;;;5.60;92.97;99673.52;1699801;82;21045;-71
2022/02/10 10:52:15;;;;;;;16.80;10.20;;;;;;;5.57;92.89;99660.42;1692467;84;21441;-73
2022/02/10 10:57:16;;;;;;;18.45;10.88;;;;;;;5.56;92.81;99658.80;1685664;84;21136;-74
2022/02/10 11:00:04;;;;;;;16.37;11.10;;;;;;;5.59;92.71;99657.69;1685131;84;21499;-71
2022/02/10 11:36:30;;;;;;;16.12;10.72;;;;;;;6.01;89.81;99638.22;1644618;85;21119;-71
2022/02/10 11:39:42;;;;;;;16.05;10.50;;;;;;;5.95;89.72;99635.28;1689253;84;20983;-72
2022/02/10 11:42:21;;;;;;;16.25;10.08;;;;;;;5.91;89.68;99639.67;1684600;84;21034;-71
2022/02/10 12:37:00;;;;;;;19.10;13.05;;;;;;;5.14;92.06;99666.37;1637929;85;21112;-73
2022/02/10 12:43:07;;;;;;;21.70;14.28;;;;;;;5.16;92.24;99672.38;1677349;85;21015;-74
2022/02/10 13:25:00;;;;;;;24.57;15.08;;;;;;;5.04;92.66;99691.82;1698052;84;20980;-73
2022/02/10 13:27:48;;;;;;;27.93;15.90;;;;;;;5.02;92.70;99689.37;1687348;84;21058;-72
2022/02/10 14:13:00;;;;;;;18.67;12.68;;;;;;;4.93;93.02;99704.70;1704571;82;21094;-70
2022/02/10 14:15:51;;;;;;;25.48;13.22;;;;;;;4.90;93.12;99707.43;1682161;84;21457;-74
2022/02/10 14:18:21;;;;;;;19.85;12.35;;;;;;;4.90;93.15;99706.60;1681528;84;21030;-74
2022/02/10 14:25:49;;;;;;;24.23;13.53;;;;;;;4.87;93.12;99705.26;1704249;84;21056;-71
2022/02/10 14:28:13;;;;;;;27.00;14.83;;;;;;;4.86;92.99;99711.26;1703160;84;20975;-72
2022/02/10 14:30:43;;;;;;;22.75;14.78;;;;;;;4.85;92.83;99712.91;1695586;84;21146;-73
2022/02/10 14:33:13;;;;;;;25.30;14.70;;;;;;;4.81;92.74;99708.54;1692367;84;21000;-70
2022/02/10 14:35:56;;;;;;;26.07;13.37;;;;;;;4.71;92.56;99706.66;1689617;84;21122;-73
2022/02/10 15:17:32;;;;;;;38.70;22.52;;;;;;;3.97;92.73;99702.34;1690496;84;21181;-71
2022/02/10 15:35:35;;;;;;;35.90;21.73;;;;;;;3.92;93.79;99709.16;1704147;82;21079;-72
2022/02/10 15:46:01;;;;;;;45.43;21.68;;;;;;;3.89;93.80;99702.85;1697518;84;21054;-65
2022/02/10 16:19:15;;;;;;;41.28;23.07;;;;;;;3.39;94.98;99704.67;1697827;84;21062;-74
2022/02/10 16:21:56;;;;;;;45.58;26.33;;;;;;;3.37;94.94;99700.02;1704056;84;21101;-75
2022/02/10 16:24:20;;;;;;;51.08;27.42;;;;;;;3.35;94.92;99707.11;1702622;84;21140;-72
2022/02/10 16:26:58;;;;;;;56.48;27.10;;;;;;;3.33;94.98;99705.19;1699315;83;21000;-75
2022/02/10 16:29:27;;;;;;;46.30;25.23;;;;;;;3.33;94.97;99713.36;1696648;84;21132;-71
2022/02/10 16:31:53;;;;;;;43.10;24.02;;;;;;;3.31;94.97;99714.16;1696946;84;21082;-71
2022/02/10 16:34:21;;;;;;;42.78;21.37;;;;;;;3.29;94.92;99718.52;1703969;84;20976;-69
2022/02/10 16:36:56;;;;;;;40.12;23.10;;;;;;;3.25;94.92;99710.61;1704998;83;20884;-72
2022/02/10 16:39:24;;;;;;;38.80;22.95;;;;;;;3.25;95.07;99721.52;1708334;83;21068;-72
2022/02/10 16:41:55;;;;;;;41.48;23.80;;;;;;;3.23;95.06;99719.59;1712426;83;21013;-73
2022/02/10 16:44:24;;;;;;;38.70;23.32;;;;;;;3.21;95.12;99725.04;1713461;83;21096;-76
2022/02/10 16:47:00;;;;;;;35.08;22.35;;;;;;;3.19;95.12;99718.47;1699398;83;21500;-73
2022/02/10 16:49:30;;;;;;;39.48;23.55;;;;;;;3.18;95.20;99725.55;1711839;83;21496;-73
2022/02/10 16:52:01;;;;;;;40.12;23.87;;;;;;;3.18;95.30;99721.45;1708134;83;21074;-74
2022/02/10 16:54:38;;;;;;;44.35;23.27;;;;;;;3.17;95.33;99719.30;1716564;83;21096;-73
2022/02/10 17:00:07;;;;;;;37.58;22.10;;;;;;;3.10;95.20;99725.52;1711284;83;21042;-74
2022/02/10 17:02:47;;;;;;;36.23;21.95;;;;;;;3.03;95.15;99722.50;1683935;83;21443;-75
2022/02/10 17:19:27;;;;;;;35.25;22.73;;;;;;;2.83;96.01;99730.02;1711844;83;21011;-73
2022/02/10 17:27:25;;;;;;;39.67;22.93;;;;;;;2.71;96.55;99722.05;1708192;83;20985;-72
2022/02/10 17:35:19;;;;;;;41.80;25.65;;;;;;;2.65;97.07;99725.27;1702771;82;21154;-72
2022/02/10 17:46:07;;;;;;;52.23;29.07;;;;;;;2.60;97.76;99740.20;1712327;83;21468;-72
2022/02/10 17:51:28;;;;;;;68.57;34.20;;;;;;;2.55;97.85;99727.39;1710192;83;21010;-74
2022/02/10 17:53:58;;;;;;;62.08;31.80;;;;;;;2.54;97.97;99729.81;1709077;83;20988;-72
2022/02/10 17:56:29;;;;;;;53.70;30.27;;;;;;;2.52;98.18;99727.09;1712059;83;21500;-72
2022/02/10 17:59:00;;;;;;;55.93;29.93;;;;;;;2.52;98.31;99717.56;1712460;83;21001;-68
2022/02/10 18:01:28;;;;;;;55.58;27.45;;;;;;;2.51;98.35;99716.73;1704406;83;21471;-70
2022/02/10 18:03:55;;;;;;;43.83;25.77;;;;;;;2.49;98.33;99719.45;1686272;83;21005;-69
2022/02/10 18:06:27;;;;;;;41.83;24.47;;;;;;;2.48;98.48;99719.16;1711378;83;21622;-72
2022/02/10 18:09:24;;;;;;;44.83;26.02;;;;;;;2.50;98.70;99719.72;1714051;83;21448;-73
2022/02/10 18:16:57;;;;;;;44.70;26.20;;;;;;;2.48;98.87;99723.23;1708590;83;20996;-72
2022/02/10 18:19:37;;;;;;;41.80;26.85;;;;;;;2.47;99.00;99727.88;1711361;83;21063;-74
2022/02/10 19:08:12;;;;;;;41.18;25.15;;;;;;;2.30;99.94;99703.54;1689338;83;21090;-73
2022/02/10 19:10:24;;;;;;;40.65;25.25;;;;;;;2.28;99.92;99704.33;1708222;83;21557;-70
2022/02/10 19:12:56;;;;;;;43.05;26.87;;;;;;;2.28;99.92;99700.25;1710681;83;20958;-71
2022/02/10 19:15:24;;;;;;;47.55;28.30;;;;;;;2.28;100.00;99694.81;1713102;83;21317;-73
2022/02/10 19:17:54;;;;;;;46.05;26.68;;;;;;;2.28;100.00;99690.20;1709297;83;21039;-73
2022/02/10 19:20:21;;;;;;;44.05;27.60;;;;;;;2.28;100.00;99685.30;1729959;82;21015;-73
2022/02/10 19:22:50;;;;;;;43.58;26.85;;;;;;;2.29;100.00;99690.47;1707985;82;21070;-69
2022/02/10 19:25:20;;;;;;;49.40;27.22;;;;;;;2.30;100.00;99691.30;1702934;83;21141;-70
2022/02/10 19:27:50;;;;;;;45.70;26.97;;;;;;;2.28;100.00;99692.09;1711101;83;22131;-72
2022/02/10 19:30:22;;;;;;;47.70;29.42;;;;;;;2.28;100.00;99686.66;1711347;83;21039;-73
2022/02/10 19:32:56;;;;;;;55.55;31.35;;;;;;;2.26;100.00;99683.37;1698030;82;21521;-74
2022/02/10 19:35:23;;;;;;;53.48;32.48;;;;;;;2.24;100.00;99690.96;1701287;84;21550;-75
2022/02/10 19:37:57;;;;;;;53.05;29.87;;;;;;;2.23;100.00;99694.24;1704792;84;21069;-74
2022/02/10 19:40:25;;;;;;;47.88;28.77;;;;;;;2.22;100.00;99689.86;1677954;85;21781;-73
2022/02/10 19:42:56;;;;;;;46.28;28.65;;;;;;;2.20;100.00;99690.69;1705945;84;20900;-75
2022/02/10 19:45:27;;;;;;;47.88;28.20;;;;;;;2.18;100.00;99690.92;1676711;85;21018;-73
2022/02/10 19:47:54;;;;;;;44.85;26.87;;;;;;;2.17;100.00;99683.85;1706571;84;20951;-71
2022/02/10 19:50:29;;;;;;;44.33;27.15;;;;;;;2.16;100.00;99681.39;1704264;84;20947;-71
2022/02/10 19:53:02;;;;;;;46.63;28.60;;;;;;;2.14;100.00;99682.19;1678556;84;21079;-73
2022/02/10 19:55:39;;;;;;;45.23;27.17;;;;;;;2.15;100.00;99683.28;1704421;84;21067;-73
2022/02/10 19:58:19;;;;;;;42.33;26.30;;;;;;;2.15;100.00;99683.84;1702748;84;21538;-72
2022/02/10 20:00:57;;;;;;;41.90;26.33;;;;;;;2.15;100.00;99686.56;1703760;84;20939;-73
2022/02/10 20:03:32;;;;;;;42.48;26.97;;;;;;;2.14;100.00;99679.47;1678088;84;20943;-75
2022/02/10 20:06:00;;;;;;;48.90;26.57;;;;;;;2.12;100.00;99687.89;1704039;84;22140;-76
2022/02/10 20:08:34;;;;;;;46.58;27.00;;;;;;;2.11;100.00;99688.98;1698426;84;21040;-75
2022/02/10 20:11:02;;;;;;;45.78;28.02;;;;;;;2.08;100.00;99688.67;1702505;84;21105;-73
2022/02/10 20:13:34;;;;;;;48.70;28.98;;;;;;;2.05;100.00;99685.38;1703142;84;21113;-71
2022/02/10 20:16:08;;;;;;;40.20;27.17;;;;;;;2.03;100.00;99682.09;1703217;84;21024;-73
2022/02/10 20:18:40;;;;;;;45.70;28.35;;;;;;;2.03;100.00;99678.58;1703047;84;21644;-74
2022/02/10 20:21:11;;;;;;;52.50;30.75;;;;;;;2.02;100.00;99670.95;1703282;84;21298;-74
2022/02/10 20:23:39;;;;;;;57.55;28.45;;;;;;;2.02;100.00;99664.16;1703600;84;20963;-71
2022/02/10 20:26:05;;;;;;;43.45;26.95;;;;;;;2.02;100.00;99661.45;1704120;84;20955;-74
2022/02/10 20:28:40;;;;;;;42.03;26.12;;;;;;;2.05;100.00;99665.53;1678509;84;21460;-75
2022/02/10 20:31:11;;;;;;;49.45;29.00;;;;;;;2.07;100.00;99664.73;1703441;83;21146;-72
2022/02/10 20:33:43;;;;;;;48.20;26.27;;;;;;;2.08;100.00;99662.31;1699780;84;21038;-72
2022/02/10 20:36:10;;;;;;;47.80;28.30;;;;;;;2.09;100.00;99666.66;1677675;84;21023;-71
2022/02/10 20:38:41;;;;;;;46.70;27.40;;;;;;;2.11;100.00;99667.76;1699957;84;21049;-74
2022/02/10 20:41:15;;;;;;;44.05;27.58;;;;;;;2.14;100.00;99665.87;1699929;84;21518;-74
2022/02/10 20:43:42;;;;;;;52.27;29.18;;;;;;;2.14;100.00;99665.87;1699779;84;21063;-72
2022/02/10 20:46:12;;;;;;;48.78;28.70;;;;;;;2.14;100.00;99661.27;1699741;84;20964;-75
2022/02/10 20:48:40;;;;;;;47.08;29.05;;;;;;;2.17;100.00;99656.66;1678307;84;20952;-74
2022/02/10 20:51:16;;;;;;;44.70;26.75;;;;;;;2.19;100.00;99655.88;1699902;84;21043;-74
2022/02/10 20:53:47;;;;;;;46.40;27.73;;;;;;;2.24;100.00;99657.80;1700002;84;21424;-73
2022/02/10 20:56:18;;;;;;;48.87;29.37;;;;;;;2.26;100.00;99657.53;1702990;84;21136;-73
2022/02/10 20:58:58;;;;;;;52.27;28.42;;;;;;;2.27;100.00;99657.83;1682236;85;21015;-73
2022/02/10 21:01:25;;;;;;;47.30;28.87;;;;;;;2.28;100.00;99647.22;1682310;85;20935;-72
2022/02/10 21:03:54;;;;;;;46.18;27.50;;;;;;;2.28;100.00;99644.50;1682615;85;20971;-70
2022/02/10 21:06:54;;;;;;;57.03;29.82;;;;;;;2.29;100.00;99649.67;1682862;85;21029;-75
2022/02/10 21:11:18;;;;;;;45.23;26.87;;;;;;;2.33;100.00;99647.26;1699998;84;20904;-70
2022/02/10 21:13:45;;;;;;;43.00;25.97;;;;;;;2.34;100.00;99638.00;1678628;84;20960;-71
2022/02/10 21:16:12;;;;;;;46.50;28.57;;;;;;;2.36;100.00;99645.37;1699957;83;20995;-72
2022/02/10 21:18:42;;;;;;;43.87;27.05;;;;;;;2.40;100.00;99644.31;1700096;84;20963;-75
2022/02/10 21:21:17;;;;;;;42.47;27.00;;;;;;;2.43;100.00;99639.70;1696746;84;21085;-71
2022/02/10 21:23:53;;;;;;;46.25;26.57;;;;;;;2.46;100.00;99634.29;1699525;84;20971;-75
2022/02/10 21:26:20;;;;;;;44.08;26.02;;;;;;;2.49;100.00;99624.23;1699064;84;21003;-73
2022/02/10 21:28:49;;;;;;;45.40;25.05;;;;;;;2.51;100.00;99622.88;1699692;84;20901;-74
2022/02/10 21:31:18;;;;;;;43.75;26.82;;;;;;;2.53;100.00;99619.89;1700133;83;21511;-74
2022/02/10 21:34:10;;;;;;;43.95;24.30;;;;;;;2.54;100.00;99616.11;1703963;84;21088;-74
2022/02/10 21:45:28;;;;;;;43.95;26.25;;;;;;;2.55;100.00;99599.52;1703976;84;20994;-74
2022/02/10 21:47:39;;;;;;;44.05;23.38;;;;;;;2.56;100.00;99608.47;1700109;84;21830;-75
2022/02/10 22:00:50;;;;;;;45.00;24.15;;;;;;;2.64;100.00;99605.81;1704561;84;21172;-74
2022/02/10 22:03:29;;;;;;;49.38;23.98;;;;;;;2.66;100.00;99602.29;1699873;84;21412;-75
2022/02/10 22:06:14;;;;;;;54.40;26.10;;;;;;;2.68;100.00;99596.84;1700429;84;21058;-73
2022/02/10 22:08:49;;;;;;;45.92;24.37;;;;;;;2.72;100.00;99601.22;1700141;83;20952;-74
2022/02/10 22:18:58;;;;;;;34.48;21.40;;;;;;;2.80;100.00;99595.27;1704296;84;20991;-72
2022/02/10 22:21:39;;;;;;;34.08;21.35;;;;;;;2.80;100.00;99595.27;1703057;84;20982;-70
2022/02/10 22:24:02;;;;;;;41.45;23.57;;;;;;;2.80;100.00;99587.63;1703160;84;20989;-73
2022/02/10 22:26:32;;;;;;;36.58;21.52;;;;;;;2.80;100.00;99588.45;1703912;84;21543;-73
2022/02/10 22:29:10;;;;;;;41.45;22.30;;;;;;;2.82;100.00;99592.80;1704175;84;20951;-74
2022/02/10 22:36:42;;;;;;;32.20;21.25;;;;;;;2.83;100.00;99588.48;1704046;84;21526;-73
2022/02/10 22:39:12;;;;;;;36.83;21.27;;;;;;;2.84;100.00;99586.56;1704281;84;21098;-71
2022/02/10 22:41:40;;;;;;;34.63;20.95;;;;;;;2.85;100.00;99595.02;1703863;84;21524;-71
2022/02/10 22:44:09;;;;;;;36.70;20.68;;;;;;;2.86;100.00;99590.67;1704342;84;20959;-71
2022/02/10 22:46:40;;;;;;;38.70;21.62;;;;;;;2.88;100.00;99587.67;1704019;84;20974;-72
2022/02/10 22:49:07;;;;;;;40.25;22.10;;;;;;;2.89;100.00;99583.33;1707373;84;20989;-71
2022/02/10 22:51:36;;;;;;;37.28;20.43;;;;;;;2.89;100.00;99583.33;1706182;84;21044;-70
2022/02/10 22:54:07;;;;;;;41.40;21.33;;;;;;;2.90;100.00;99585.52;1704383;84;20954;-72
2022/02/10 22:56:34;;;;;;;35.15;19.82;;;;;;;2.92;100.00;99579.23;1703876;84;21041;-72
2022/02/10 22:59:05;;;;;;;35.88;19.55;;;;;;;2.92;100.00;99582.78;1677858;84;21078;-70
2022/02/10 23:01:34;;;;;;;32.78;20.60;;;;;;;2.93;100.00;99583.61;1703957;84;20960;-72
2022/02/10 23:04:02;;;;;;;34.30;20.35;;;;;;;2.95;100.00;99584.14;1704400;84;22051;-73
2022/02/10 23:06:30;;;;;;;35.63;20.08;;;;;;;2.96;99.98;99577.62;1703952;84;20943;-72
2022/02/10 23:08:56;;;;;;;34.27;19.55;;;;;;;2.97;99.90;99583.90;1703922;84;21349;-72
2022/02/10 23:11:28;;;;;;;31.42;19.75;;;;;;;2.98;99.82;99583.63;1677779;84;20948;-68
2022/02/10 23:13:59;;;;;;;38.65;22.90;;;;;;;2.99;99.72;99587.98;1704103;84;21567;-70
2022/02/10 23:16:29;;;;;;;60.00;29.77;;;;;;;3.01;99.71;99591.80;1704125;84;21124;-72
2022/02/10 23:18:58;;;;;;;58.70;29.32;;;;;;;3.03;99.74;99593.71;1704236;84;20971;-72
2022/02/10 23:21:32;;;;;;;42.53;24.15;;;;;;;3.04;99.71;99594.80;1703665;84;20963;-69
2022/02/10 23:23:58;;;;;;;39.33;23.32;;;;;;;3.06;99.60;99595.89;1703997;82;20959;-72
2022/02/10 23:26:28;;;;;;;33.80;22.27;;;;;;;3.04;99.48;99599.42;1704196;84;20895;-67
2022/02/10 23:29:07;;;;;;;34.08;20.40;;;;;;;3.03;99.38;99603.23;1681545;84;21991;-68
2022/02/10 23:31:34;;;;;;;33.80;21.40;;;;;;;3.01;99.24;99599.42;1678047;84;20937;-72
2022/02/10 23:34:03;;;;;;;37.25;21.70;;;;;;;2.99;99.22;99589.87;1703930;83;21024;-71
2022/02/10 23:36:53;;;;;;;35.30;20.75;;;;;;;3.00;99.22;99591.53;1704064;83;21528;-74
2022/02/10 23:39:26;;;;;;;38.15;21.37;;;;;;;3.01;99.22;99587.70;1678059;84;21002;-71
2022/02/10 23:42:08;;;;;;;34.10;21.37;;;;;;;2.99;99.21;99582.53;1703833;84;21194;-72
2022/02/10 23:44:38;;;;;;;37.75;22.25;;;;;;;3.00;99.28;99586.88;1703549;84;20940;-69
2022/02/10 23:47:04;;;;;;;38.35;22.02;;;;;;;3.01;99.25;99574.92;1703970;84;21447;-70
2022/02/10 23:49:32;;;;;;;40.28;21.07;;;;;;;3.03;99.28;99576.84;1703654;84;20951;-71
2022/02/10 23:52:04;;;;;;;40.08;20.50;;;;;;;3.04;99.23;99575.74;1704351;83;20955;-72
2022/02/10 23:54:37;;;;;;;40.23;20.35;;;;;;;3.05;99.24;99572.48;1707364;84;21106;-72
2022/02/10 23:57:48;;;;;;;33.83;20.10;;;;;;;3.05;99.28;99572.48;1706480;84;20931;-73
